Aérodrome :
LOGIN :

S'inscrire | Disclaimer

   EN    FR    IT 

 










Légende :    VFR   VFR Marginal   IFR   IFR Intensif   IFR Très Intensif
Visi : 
Plafond : 
>= 8 km
>= 3000ft
5 à 8 km
1000 à 3000 ft
1500m à 5 km
500 à 1000 ft
800 à 1500m
200 à 500 ft
< 800m
< 200 ft
Symboles :   Orages  Brouillard  Fortes neiges  Fortes précipitations  Vent > 20 kt
SIGMETs :   Divers  Orages  Givrage  Turbulence  Onde Orograph.  Cendres Volcan.






- Altitude de l'aérodrome : 70 ft
- Code IATA : WBG


ETNS - Schleswig

DERNIER METAR :
  • 210520Z 08011KT 3300 -RADZ BR BKN010 BKN035 11/10 Q1015 YLO YLO

METARs EXPIRÉS :
  • 210450Z 07011KT 3500 -RADZ BR FEW006 BKN010 11/10 Q1015 YLO GRN BECMG YLO
  • 210420Z 08010KT 4800 -RA BR SCT008 BKN045 11/10 Q1014 GRN GRN BECMG YLO
  • 210320Z 06008KT 7000 SCT005 BKN050 11/11 Q1015 WHT
  • 210220Z AUTO 06007KT 5000 // ////// 11/10 Q1014 ///

TAF TAF ETNS
Valide du 21 à 05h jusqu'au 21 à 14h UTC


210420Z 2105/2114 07008KT 5000 -RA SCT006 BKN010
BECMG 2105/2107 05010KT 4000 -RADZ BKN005
TEMPO 2107/2110 06010G20KT 2000 DZRA BKN002
BECMG 2110/2112 07012G22KT 7000 NSW SCT010 BKN015 BY ETGL



MET'MAP, la Météo Aéronautique d'un coup d'oeil ! - Copyright ORBIFLY Décembre 2007 - Disclaimer

ORBIFLY MET'MAP TEAM :

Programmation & Développement : Alexandra Zaïnal
Conception & Développement : Baudouin d'Aumeries
Co-Programmation & Développement : Marc-Olivier Méhu
Soutien technique & logistique : Manuel Goepfert

Contact : metmap@orbifly.com




SOURCES & CREDITS :

   NOAA